sensor_id;sensor_type;location;lat;lon;timestamp;P1;durP1;ratioP1;P2;durP2;ratioP2
73733;SDS011;62039;50.000;9.064;2024-01-30T00:00:09;5.07;;;4.27;;
73733;SDS011;62039;50.000;9.064;2024-01-30T00:02:36;4.57;;;3.90;;
73733;SDS011;62039;50.000;9.064;2024-01-30T00:05:03;4.33;;;3.93;;
73733;SDS011;62039;50.000;9.064;2024-01-30T00:07:31;4.13;;;3.73;;
73733;SDS011;62039;50.000;9.064;2024-01-30T00:09:58;5.00;;;4.30;;
73733;SDS011;62039;50.000;9.064;2024-01-30T00:12:25;5.03;;;4.20;;
73733;SDS011;62039;50.000;9.064;2024-01-30T00:14:52;4.63;;;4.13;;
73733;SDS011;62039;50.000;9.064;2024-01-30T00:17:23;5.50;;;4.27;;
73733;SDS011;62039;50.000;9.064;2024-01-30T00:19:50;6.77;;;4.27;;
73733;SDS011;62039;50.000;9.064;2024-01-30T00:22:17;6.27;;;4.53;;
73733;SDS011;62039;50.000;9.064;2024-01-30T00:24:44;5.40;;;4.33;;
73733;SDS011;62039;50.000;9.064;2024-01-30T00:27:11;5.70;;;4.47;;
73733;SDS011;62039;50.000;9.064;2024-01-30T00:29:38;6.17;;;4.23;;
73733;SDS011;62039;50.000;9.064;2024-01-30T00:32:05;5.63;;;4.63;;
73733;SDS011;62039;50.000;9.064;2024-01-30T00:34:35;5.97;;;4.50;;
73733;SDS011;62039;50.000;9.064;2024-01-30T00:37:02;6.60;;;4.60;;
73733;SDS011;62039;50.000;9.064;2024-01-30T00:39:30;5.90;;;4.87;;
73733;SDS011;62039;50.000;9.064;2024-01-30T00:41:57;6.50;;;5.20;;
73733;SDS011;62039;50.000;9.064;2024-01-30T00:44:24;7.07;;;5.00;;
73733;SDS011;62039;50.000;9.064;2024-01-30T00:46:50;6.80;;;4.83;;
73733;SDS011;62039;50.000;9.064;2024-01-30T00:49:17;6.57;;;4.77;;
73733;SDS011;62039;50.000;9.064;2024-01-30T00:51:47;5.37;;;4.33;;
73733;SDS011;62039;50.000;9.064;2024-01-30T00:54:14;6.73;;;5.10;;
73733;SDS011;62039;50.000;9.064;2024-01-30T00:56:41;6.40;;;5.50;;
73733;SDS011;62039;50.000;9.064;2024-01-30T00:59:08;6.97;;;6.03;;
73733;SDS011;62039;50.000;9.064;2024-01-30T01:01:35;6.90;;;5.70;;
73733;SDS011;62039;50.000;9.064;2024-01-30T01:04:02;6.97;;;5.70;;
73733;SDS011;62039;50.000;9.064;2024-01-30T01:06:29;9.47;;;6.67;;
73733;SDS011;62039;50.000;9.064;2024-01-30T01:08:59;9.37;;;6.23;;
73733;SDS011;62039;50.000;9.064;2024-01-30T01:11:30;6.87;;;5.80;;
73733;SDS011;62039;50.000;9.064;2024-01-30T01:13:57;8.30;;;5.97;;
73733;SDS011;62039;50.000;9.064;2024-01-30T01:16:24;6.33;;;5.57;;
73733;SDS011;62039;50.000;9.064;2024-01-30T01:18:51;7.30;;;5.37;;
73733;SDS011;62039;50.000;9.064;2024-01-30T01:21:18;7.67;;;5.13;;
73733;SDS011;62039;50.000;9.064;2024-01-30T01:23:45;5.93;;;5.10;;
73733;SDS011;62039;50.000;9.064;2024-01-30T01:26:15;9.90;;;5.43;;
73733;SDS011;62039;50.000;9.064;2024-01-30T01:28:41;5.57;;;4.73;;
73733;SDS011;62039;50.000;9.064;2024-01-30T01:31:08;5.43;;;4.40;;
73733;SDS011;62039;50.000;9.064;2024-01-30T01:33:35;6.40;;;4.57;;
73733;SDS011;62039;50.000;9.064;2024-01-30T01:36:03;7.77;;;5.37;;
73733;SDS011;62039;50.000;9.064;2024-01-30T01:38:30;5.80;;;4.93;;
73733;SDS011;62039;50.000;9.064;2024-01-30T01:40:57;6.80;;;5.20;;
73733;SDS011;62039;50.000;9.064;2024-01-30T01:43:26;5.40;;;4.27;;
73733;SDS011;62039;50.000;9.064;2024-01-30T01:45:54;6.27;;;4.40;;
73733;SDS011;62039;50.000;9.064;2024-01-30T01:48:21;5.83;;;4.63;;
73733;SDS011;62039;50.000;9.064;2024-01-30T01:50:48;5.10;;;4.60;;
73733;SDS011;62039;50.000;9.064;2024-01-30T01:53:15;6.93;;;4.83;;
73733;SDS011;62039;50.000;9.064;2024-01-30T01:55:42;6.50;;;4.73;;
73733;SDS011;62039;50.000;9.064;2024-01-30T01:58:10;5.47;;;4.50;;
73733;SDS011;62039;50.000;9.064;2024-01-30T02:00:40;6.47;;;4.60;;
73733;SDS011;62039;50.000;9.064;2024-01-30T02:03:08;7.30;;;4.77;;
73733;SDS011;62039;50.000;9.064;2024-01-30T02:05:37;7.13;;;5.50;;
73733;SDS011;62039;50.000;9.064;2024-01-30T02:08:05;6.40;;;4.77;;
73733;SDS011;62039;50.000;9.064;2024-01-30T02:10:33;6.13;;;4.87;;
73733;SDS011;62039;50.000;9.064;2024-01-30T02:13:00;5.77;;;4.87;;
73733;SDS011;62039;50.000;9.064;2024-01-30T02:15:27;6.27;;;4.60;;
73733;SDS011;62039;50.000;9.064;2024-01-30T02:17:57;6.13;;;4.30;;
73733;SDS011;62039;50.000;9.064;2024-01-30T02:20:24;7.00;;;4.70;;
73733;SDS011;62039;50.000;9.064;2024-01-30T02:22:54;5.87;;;4.17;;
73733;SDS011;62039;50.000;9.064;2024-01-30T02:25:29;6.30;;;4.73;;
73733;SDS011;62039;50.000;9.064;2024-01-30T02:27:57;6.77;;;4.70;;
73733;SDS011;62039;50.000;9.064;2024-01-30T02:30:24;6.53;;;4.63;;
73733;SDS011;62039;50.000;9.064;2024-01-30T02:32:51;5.67;;;4.60;;
73733;SDS011;62039;50.000;9.064;2024-01-30T02:35:18;5.17;;;4.30;;
73733;SDS011;62039;50.000;9.064;2024-01-30T02:37:45;5.77;;;5.07;;
73733;SDS011;62039;50.000;9.064;2024-01-30T02:40:14;8.70;;;5.50;;
73733;SDS011;62039;50.000;9.064;2024-01-30T02:42:41;7.60;;;5.13;;
73733;SDS011;62039;50.000;9.064;2024-01-30T02:45:09;7.03;;;5.20;;
73733;SDS011;62039;50.000;9.064;2024-01-30T02:47:37;5.73;;;4.77;;
73733;SDS011;62039;50.000;9.064;2024-01-30T02:50:05;6.90;;;5.33;;
73733;SDS011;62039;50.000;9.064;2024-01-30T02:52:33;6.60;;;5.30;;
73733;SDS011;62039;50.000;9.064;2024-01-30T02:55:00;5.57;;;4.47;;
73733;SDS011;62039;50.000;9.064;2024-01-30T02:57:30;5.80;;;4.93;;
73733;SDS011;62039;50.000;9.064;2024-01-30T02:59:57;5.30;;;4.23;;
73733;SDS011;62039;50.000;9.064;2024-01-30T03:02:24;5.80;;;4.57;;
73733;SDS011;62039;50.000;9.064;2024-01-30T03:04:51;5.00;;;4.20;;
73733;SDS011;62039;50.000;9.064;2024-01-30T03:07:18;5.47;;;4.73;;
73733;SDS011;62039;50.000;9.064;2024-01-30T03:09:45;5.67;;;5.17;;
73733;SDS011;62039;50.000;9.064;2024-01-30T03:12:12;5.70;;;5.00;;
73733;SDS011;62039;50.000;9.064;2024-01-30T03:14:41;5.70;;;5.07;;
73733;SDS011;62039;50.000;9.064;2024-01-30T03:17:08;6.83;;;5.07;;
73733;SDS011;62039;50.000;9.064;2024-01-30T03:19:35;8.30;;;5.60;;
73733;SDS011;62039;50.000;9.064;2024-01-30T03:22:02;7.37;;;5.00;;
73733;SDS011;62039;50.000;9.064;2024-01-30T03:24:29;5.33;;;4.50;;
73733;SDS011;62039;50.000;9.064;2024-01-30T03:26:56;5.93;;;4.60;;
73733;SDS011;62039;50.000;9.064;2024-01-30T03:29:23;6.97;;;4.97;;
73733;SDS011;62039;50.000;9.064;2024-01-30T03:31:53;6.53;;;5.10;;
73733;SDS011;62039;50.000;9.064;2024-01-30T03:34:20;7.87;;;5.40;;
73733;SDS011;62039;50.000;9.064;2024-01-30T03:36:47;7.47;;;5.37;;
73733;SDS011;62039;50.000;9.064;2024-01-30T03:39:14;6.70;;;5.20;;
73733;SDS011;62039;50.000;9.064;2024-01-30T03:41:41;6.40;;;5.40;;
73733;SDS011;62039;50.000;9.064;2024-01-30T03:44:08;7.07;;;5.20;;
73733;SDS011;62039;50.000;9.064;2024-01-30T03:46:35;7.17;;;5.10;;
73733;SDS011;62039;50.000;9.064;2024-01-30T03:49:05;5.90;;;4.20;;
73733;SDS011;62039;50.000;9.064;2024-01-30T03:51:32;5.83;;;4.50;;
73733;SDS011;62039;50.000;9.064;2024-01-30T03:53:59;5.57;;;4.37;;
73733;SDS011;62039;50.000;9.064;2024-01-30T03:56:26;5.27;;;4.10;;
73733;SDS011;62039;50.000;9.064;2024-01-30T03:58:53;4.77;;;4.27;;
73733;SDS011;62039;50.000;9.064;2024-01-30T04:01:20;5.60;;;4.37;;
73733;SDS011;62039;50.000;9.064;2024-01-30T04:03:47;6.23;;;4.67;;
73733;SDS011;62039;50.000;9.064;2024-01-30T04:06:16;6.40;;;4.53;;
73733;SDS011;62039;50.000;9.064;2024-01-30T04:08:43;4.70;;;4.03;;
73733;SDS011;62039;50.000;9.064;2024-01-30T04:11:10;6.30;;;4.60;;
73733;SDS011;62039;50.000;9.064;2024-01-30T04:13:37;5.80;;;4.03;;
73733;SDS011;62039;50.000;9.064;2024-01-30T04:16:04;5.07;;;4.57;;
73733;SDS011;62039;50.000;9.064;2024-01-30T04:18:32;5.00;;;4.20;;
73733;SDS011;62039;50.000;9.064;2024-01-30T04:20:59;5.37;;;4.60;;
73733;SDS011;62039;50.000;9.064;2024-01-30T04:23:29;6.57;;;4.47;;
73733;SDS011;62039;50.000;9.064;2024-01-30T04:25:56;5.23;;;4.67;;
73733;SDS011;62039;50.000;9.064;2024-01-30T04:28:23;5.23;;;4.47;;
73733;SDS011;62039;50.000;9.064;2024-01-30T04:30:50;6.20;;;4.13;;
73733;SDS011;62039;50.000;9.064;2024-01-30T04:33:17;6.33;;;4.00;;
73733;SDS011;62039;50.000;9.064;2024-01-30T04:35:43;5.10;;;3.97;;
73733;SDS011;62039;50.000;9.064;2024-01-30T04:38:10;5.53;;;4.17;;
73733;SDS011;62039;50.000;9.064;2024-01-30T04:40:40;4.73;;;4.10;;
73733;SDS011;62039;50.000;9.064;2024-01-30T04:43:07;4.53;;;3.97;;
73733;SDS011;62039;50.000;9.064;2024-01-30T04:45:35;4.57;;;3.90;;
73733;SDS011;62039;50.000;9.064;2024-01-30T04:48:02;4.73;;;4.10;;
73733;SDS011;62039;50.000;9.064;2024-01-30T04:50:29;5.17;;;4.03;;
73733;SDS011;62039;50.000;9.064;2024-01-30T04:52:56;4.67;;;4.17;;
73733;SDS011;62039;50.000;9.064;2024-01-30T04:55:23;4.43;;;3.80;;
73733;SDS011;62039;50.000;9.064;2024-01-30T04:57:53;5.70;;;4.47;;
73733;SDS011;62039;50.000;9.064;2024-01-30T05:00:20;5.23;;;4.30;;
73733;SDS011;62039;50.000;9.064;2024-01-30T05:02:47;5.20;;;4.07;;
73733;SDS011;62039;50.000;9.064;2024-01-30T05:05:14;4.47;;;4.00;;
73733;SDS011;62039;50.000;9.064;2024-01-30T05:07:41;4.43;;;3.80;;
73733;SDS011;62039;50.000;9.064;2024-01-30T05:10:08;4.73;;;3.87;;
73733;SDS011;62039;50.000;9.064;2024-01-30T05:12:35;4.63;;;4.20;;
73733;SDS011;62039;50.000;9.064;2024-01-30T05:15:05;6.13;;;4.30;;
73733;SDS011;62039;50.000;9.064;2024-01-30T05:17:33;5.30;;;4.00;;
73733;SDS011;62039;50.000;9.064;2024-01-30T05:20:00;7.17;;;5.70;;
73733;SDS011;62039;50.000;9.064;2024-01-30T05:22:27;5.90;;;4.30;;
73733;SDS011;62039;50.000;9.064;2024-01-30T05:24:54;6.80;;;4.83;;
73733;SDS011;62039;50.000;9.064;2024-01-30T05:27:21;6.00;;;4.87;;
73733;SDS011;62039;50.000;9.064;2024-01-30T05:29:48;5.83;;;4.70;;
73733;SDS011;62039;50.000;9.064;2024-01-30T05:32:18;8.07;;;4.97;;
73733;SDS011;62039;50.000;9.064;2024-01-30T05:34:44;6.63;;;5.00;;
73733;SDS011;62039;50.000;9.064;2024-01-30T05:37:11;6.53;;;5.00;;
73733;SDS011;62039;50.000;9.064;2024-01-30T05:39:38;6.43;;;4.50;;
73733;SDS011;62039;50.000;9.064;2024-01-30T05:42:06;5.57;;;4.20;;
73733;SDS011;62039;50.000;9.064;2024-01-30T05:44:32;6.17;;;4.60;;
73733;SDS011;62039;50.000;9.064;2024-01-30T05:46:59;8.97;;;4.70;;
73733;SDS011;62039;50.000;9.064;2024-01-30T05:49:29;6.23;;;4.60;;
73733;SDS011;62039;50.000;9.064;2024-01-30T05:51:56;5.10;;;4.20;;
73733;SDS011;62039;50.000;9.064;2024-01-30T05:54:23;5.90;;;4.93;;
73733;SDS011;62039;50.000;9.064;2024-01-30T05:56:50;4.40;;;4.00;;
73733;SDS011;62039;50.000;9.064;2024-01-30T05:59:17;4.83;;;4.20;;
73733;SDS011;62039;50.000;9.064;2024-01-30T06:01:45;5.40;;;4.30;;
73733;SDS011;62039;50.000;9.064;2024-01-30T06:04:12;5.50;;;4.20;;
73733;SDS011;62039;50.000;9.064;2024-01-30T06:06:42;4.80;;;4.30;;
73733;SDS011;62039;50.000;9.064;2024-01-30T06:09:09;6.63;;;4.27;;
73733;SDS011;62039;50.000;9.064;2024-01-30T06:11:36;5.97;;;4.60;;
73733;SDS011;62039;50.000;9.064;2024-01-30T06:14:03;5.67;;;4.60;;
73733;SDS011;62039;50.000;9.064;2024-01-30T06:16:30;5.47;;;4.77;;
73733;SDS011;62039;50.000;9.064;2024-01-30T06:18:57;8.03;;;5.37;;
73733;SDS011;62039;50.000;9.064;2024-01-30T06:21:24;5.90;;;4.70;;
73733;SDS011;62039;50.000;9.064;2024-01-30T06:23:54;5.30;;;4.17;;
73733;SDS011;62039;50.000;9.064;2024-01-30T06:26:21;6.23;;;4.97;;
73733;SDS011;62039;50.000;9.064;2024-01-30T06:28:47;5.97;;;4.63;;
73733;SDS011;62039;50.000;9.064;2024-01-30T06:31:14;5.47;;;4.43;;
73733;SDS011;62039;50.000;9.064;2024-01-30T06:33:41;5.67;;;4.20;;
73733;SDS011;62039;50.000;9.064;2024-01-30T06:36:09;5.40;;;4.40;;
73733;SDS011;62039;50.000;9.064;2024-01-30T06:38:36;5.83;;;5.00;;
73733;SDS011;62039;50.000;9.064;2024-01-30T06:41:05;5.17;;;4.03;;
73733;SDS011;62039;50.000;9.064;2024-01-30T06:43:32;5.47;;;4.83;;
73733;SDS011;62039;50.000;9.064;2024-01-30T06:45:59;5.13;;;4.40;;
73733;SDS011;62039;50.000;9.064;2024-01-30T06:48:26;8.70;;;5.00;;
73733;SDS011;62039;50.000;9.064;2024-01-30T06:50:53;5.03;;;4.50;;
73733;SDS011;62039;50.000;9.064;2024-01-30T06:53:20;6.13;;;4.50;;
73733;SDS011;62039;50.000;9.064;2024-01-30T06:55:47;4.67;;;4.27;;
73733;SDS011;62039;50.000;9.064;2024-01-30T06:58:17;7.13;;;4.53;;
73733;SDS011;62039;50.000;9.064;2024-01-30T07:00:44;7.43;;;4.73;;
73733;SDS011;62039;50.000;9.064;2024-01-30T07:03:10;5.37;;;4.73;;
73733;SDS011;62039;50.000;9.064;2024-01-30T07:05:37;5.63;;;5.00;;
73733;SDS011;62039;50.000;9.064;2024-01-30T07:08:04;7.00;;;4.33;;
73733;SDS011;62039;50.000;9.064;2024-01-30T07:10:32;7.97;;;6.13;;
73733;SDS011;62039;50.000;9.064;2024-01-30T07:13:00;7.30;;;5.47;;
73733;SDS011;62039;50.000;9.064;2024-01-30T07:15:29;5.67;;;4.77;;
73733;SDS011;62039;50.000;9.064;2024-01-30T07:17:56;5.87;;;5.07;;
73733;SDS011;62039;50.000;9.064;2024-01-30T07:20:24;6.83;;;4.93;;
73733;SDS011;62039;50.000;9.064;2024-01-30T07:22:51;5.80;;;4.57;;
73733;SDS011;62039;50.000;9.064;2024-01-30T07:25:18;6.40;;;4.77;;
73733;SDS011;62039;50.000;9.064;2024-01-30T07:27:45;6.23;;;4.77;;
73733;SDS011;62039;50.000;9.064;2024-01-30T07:30:12;7.30;;;5.10;;
73733;SDS011;62039;50.000;9.064;2024-01-30T07:32:42;8.50;;;6.47;;
73733;SDS011;62039;50.000;9.064;2024-01-30T07:35:09;7.53;;;5.53;;
73733;SDS011;62039;50.000;9.064;2024-01-30T07:37:36;6.23;;;5.13;;
73733;SDS011;62039;50.000;9.064;2024-01-30T07:40:03;7.87;;;5.70;;
73733;SDS011;62039;50.000;9.064;2024-01-30T07:42:31;8.00;;;5.00;;
73733;SDS011;62039;50.000;9.064;2024-01-30T07:44:58;5.47;;;4.37;;
73733;SDS011;62039;50.000;9.064;2024-01-30T07:47:26;5.30;;;4.03;;
73733;SDS011;62039;50.000;9.064;2024-01-30T07:49:56;11.73;;;4.90;;
73733;SDS011;62039;50.000;9.064;2024-01-30T07:52:23;5.27;;;4.50;;
73733;SDS011;62039;50.000;9.064;2024-01-30T07:54:50;5.03;;;4.47;;
73733;SDS011;62039;50.000;9.064;2024-01-30T07:57:17;6.10;;;5.50;;
73733;SDS011;62039;50.000;9.064;2024-01-30T07:59:45;7.47;;;4.80;;
73733;SDS011;62039;50.000;9.064;2024-01-30T08:02:12;5.33;;;4.50;;
73733;SDS011;62039;50.000;9.064;2024-01-30T08:04:39;5.70;;;4.60;;
73733;SDS011;62039;50.000;9.064;2024-01-30T08:07:09;6.07;;;4.73;;
73733;SDS011;62039;50.000;9.064;2024-01-30T08:09:36;7.07;;;4.67;;
73733;SDS011;62039;50.000;9.064;2024-01-30T08:12:04;6.83;;;4.83;;
73733;SDS011;62039;50.000;9.064;2024-01-30T08:14:31;5.13;;;4.60;;
73733;SDS011;62039;50.000;9.064;2024-01-30T08:16:58;7.67;;;5.77;;
73733;SDS011;62039;50.000;9.064;2024-01-30T08:19:25;5.53;;;5.00;;
73733;SDS011;62039;50.000;9.064;2024-01-30T08:21:52;5.50;;;4.63;;
73733;SDS011;62039;50.000;9.064;2024-01-30T08:24:21;7.37;;;4.90;;
73733;SDS011;62039;50.000;9.064;2024-01-30T08:26:48;8.10;;;6.03;;
73733;SDS011;62039;50.000;9.064;2024-01-30T08:29:15;7.10;;;5.10;;
73733;SDS011;62039;50.000;9.064;2024-01-30T08:31:42;7.07;;;5.20;;
73733;SDS011;62039;50.000;9.064;2024-01-30T08:34:09;6.13;;;4.73;;
73733;SDS011;62039;50.000;9.064;2024-01-30T08:36:36;6.10;;;5.00;;
73733;SDS011;62039;50.000;9.064;2024-01-30T08:39:03;5.90;;;4.73;;
73733;SDS011;62039;50.000;9.064;2024-01-30T08:41:34;7.00;;;5.40;;
73733;SDS011;62039;50.000;9.064;2024-01-30T08:44:01;6.17;;;4.77;;
73733;SDS011;62039;50.000;9.064;2024-01-30T08:46:28;5.43;;;4.87;;
73733;SDS011;62039;50.000;9.064;2024-01-30T08:48:55;5.57;;;4.80;;
73733;SDS011;62039;50.000;9.064;2024-01-30T08:51:22;5.37;;;4.80;;
73733;SDS011;62039;50.000;9.064;2024-01-30T08:53:49;6.60;;;4.73;;
73733;SDS011;62039;50.000;9.064;2024-01-30T08:56:16;8.53;;;5.00;;
73733;SDS011;62039;50.000;9.064;2024-01-30T08:58:46;5.67;;;4.97;;
73733;SDS011;62039;50.000;9.064;2024-01-30T09:01:13;5.43;;;4.73;;
73733;SDS011;62039;50.000;9.064;2024-01-30T09:03:41;4.90;;;4.40;;
73733;SDS011;62039;50.000;9.064;2024-01-30T09:06:08;6.00;;;4.53;;
73733;SDS011;62039;50.000;9.064;2024-01-30T09:08:35;5.47;;;4.50;;
73733;SDS011;62039;50.000;9.064;2024-01-30T09:11:02;6.07;;;4.90;;
73733;SDS011;62039;50.000;9.064;2024-01-30T09:13:34;6.47;;;5.17;;
73733;SDS011;62039;50.000;9.064;2024-01-30T09:16:04;7.70;;;5.33;;
73733;SDS011;62039;50.000;9.064;2024-01-30T09:18:31;5.47;;;4.40;;
73733;SDS011;62039;50.000;9.064;2024-01-30T09:20:58;5.83;;;5.03;;
73733;SDS011;62039;50.000;9.064;2024-01-30T09:23:26;6.77;;;5.27;;
73733;SDS011;62039;50.000;9.064;2024-01-30T09:25:53;6.17;;;5.17;;
73733;SDS011;62039;50.000;9.064;2024-01-30T09:28:20;6.40;;;4.87;;
73733;SDS011;62039;50.000;9.064;2024-01-30T09:30:52;6.47;;;5.17;;
73733;SDS011;62039;50.000;9.064;2024-01-30T09:33:21;5.53;;;4.83;;
73733;SDS011;62039;50.000;9.064;2024-01-30T09:35:48;6.43;;;5.00;;
73733;SDS011;62039;50.000;9.064;2024-01-30T09:38:15;5.80;;;5.00;;
73733;SDS011;62039;50.000;9.064;2024-01-30T09:40:42;5.13;;;4.47;;
73733;SDS011;62039;50.000;9.064;2024-01-30T09:43:10;7.00;;;5.40;;
73733;SDS011;62039;50.000;9.064;2024-01-30T09:45:43;5.43;;;4.60;;
73733;SDS011;62039;50.000;9.064;2024-01-30T09:48:11;7.00;;;4.90;;
73733;SDS011;62039;50.000;9.064;2024-01-30T09:50:41;7.53;;;5.60;;
73733;SDS011;62039;50.000;9.064;2024-01-30T09:53:08;8.47;;;6.70;;
73733;SDS011;62039;50.000;9.064;2024-01-30T09:55:35;6.93;;;5.70;;
73733;SDS011;62039;50.000;9.064;2024-01-30T09:58:03;9.67;;;7.33;;
73733;SDS011;62039;50.000;9.064;2024-01-30T10:00:30;9.07;;;6.47;;
73733;SDS011;62039;50.000;9.064;2024-01-30T10:02:57;6.90;;;5.70;;
73733;SDS011;62039;50.000;9.064;2024-01-30T10:05:25;5.53;;;4.80;;
73733;SDS011;62039;50.000;9.064;2024-01-30T10:07:56;8.00;;;4.77;;
73733;SDS011;62039;50.000;9.064;2024-01-30T10:10:23;6.10;;;5.07;;
73733;SDS011;62039;50.000;9.064;2024-01-30T10:12:51;6.43;;;5.17;;
73733;SDS011;62039;50.000;9.064;2024-01-30T10:15:18;5.63;;;5.13;;
73733;SDS011;62039;50.000;9.064;2024-01-30T10:17:45;7.10;;;5.60;;
73733;SDS011;62039;50.000;9.064;2024-01-30T10:20:12;5.07;;;4.53;;
73733;SDS011;62039;50.000;9.064;2024-01-30T10:22:40;6.13;;;5.00;;
73733;SDS011;62039;50.000;9.064;2024-01-30T10:25:09;8.47;;;5.57;;
73733;SDS011;62039;50.000;9.064;2024-01-30T10:27:39;6.70;;;5.50;;
73733;SDS011;62039;50.000;9.064;2024-01-30T10:30:07;7.47;;;5.50;;
73733;SDS011;62039;50.000;9.064;2024-01-30T10:32:35;10.37;;;5.80;;
73733;SDS011;62039;50.000;9.064;2024-01-30T10:35:02;10.67;;;7.83;;
73733;SDS011;62039;50.000;9.064;2024-01-30T10:37:29;10.33;;;7.33;;
73733;SDS011;62039;50.000;9.064;2024-01-30T10:39:57;12.63;;;8.70;;
73733;SDS011;62039;50.000;9.064;2024-01-30T10:42:32;12.23;;;7.80;;
73733;SDS011;62039;50.000;9.064;2024-01-30T10:45:00;9.07;;;6.60;;
73733;SDS011;62039;50.000;9.064;2024-01-30T10:47:35;8.90;;;6.53;;
73733;SDS011;62039;50.000;9.064;2024-01-30T10:50:03;9.20;;;6.23;;
73733;SDS011;62039;50.000;9.064;2024-01-30T10:52:31;7.07;;;6.07;;
73733;SDS011;62039;50.000;9.064;2024-01-30T10:54:59;10.20;;;7.63;;
73733;SDS011;62039;50.000;9.064;2024-01-30T10:57:26;8.00;;;6.67;;
73733;SDS011;62039;50.000;9.064;2024-01-30T10:59:57;8.20;;;6.97;;
73733;SDS011;62039;50.000;9.064;2024-01-30T11:02:26;8.63;;;6.83;;
73733;SDS011;62039;50.000;9.064;2024-01-30T11:04:54;16.30;;;13.87;;
73733;SDS011;62039;50.000;9.064;2024-01-30T11:07:24;16.17;;;12.30;;
73733;SDS011;62039;50.000;9.064;2024-01-30T11:09:52;13.33;;;9.77;;
73733;SDS011;62039;50.000;9.064;2024-01-30T11:12:23;9.60;;;7.47;;
73733;SDS011;62039;50.000;9.064;2024-01-30T11:14:50;6.97;;;6.27;;
73733;SDS011;62039;50.000;9.064;2024-01-30T11:17:43;8.93;;;6.30;;
73733;SDS011;62039;50.000;9.064;2024-01-30T11:20:11;7.30;;;5.13;;
73733;SDS011;62039;50.000;9.064;2024-01-30T11:22:41;7.17;;;5.13;;
73733;SDS011;62039;50.000;9.064;2024-01-30T11:25:10;8.03;;;5.57;;
73733;SDS011;62039;50.000;9.064;2024-01-30T11:27:38;7.30;;;5.57;;
73733;SDS011;62039;50.000;9.064;2024-01-30T11:30:08;5.83;;;4.80;;
73733;SDS011;62039;50.000;9.064;2024-01-30T11:32:35;6.23;;;5.33;;
73733;SDS011;62039;50.000;9.064;2024-01-30T11:35:03;6.30;;;4.83;;
73733;SDS011;62039;50.000;9.064;2024-01-30T11:37:30;7.83;;;6.10;;
73733;SDS011;62039;50.000;9.064;2024-01-30T11:39:58;6.07;;;5.47;;
73733;SDS011;62039;50.000;9.064;2024-01-30T11:42:25;6.03;;;5.43;;
73733;SDS011;62039;50.000;9.064;2024-01-30T11:44:53;6.27;;;5.63;;
73733;SDS011;62039;50.000;9.064;2024-01-30T11:47:23;6.60;;;5.90;;
73733;SDS011;62039;50.000;9.064;2024-01-30T11:49:50;6.07;;;5.20;;
73733;SDS011;62039;50.000;9.064;2024-01-30T11:52:17;6.50;;;5.07;;
73733;SDS011;62039;50.000;9.064;2024-01-30T11:54:44;6.97;;;5.47;;
73733;SDS011;62039;50.000;9.064;2024-01-30T11:57:11;7.80;;;5.70;;
73733;SDS011;62039;50.000;9.064;2024-01-30T11:59:37;7.73;;;6.57;;
73733;SDS011;62039;50.000;9.064;2024-01-30T12:02:04;6.83;;;6.00;;
73733;SDS011;62039;50.000;9.064;2024-01-30T12:04:34;6.50;;;5.90;;
73733;SDS011;62039;50.000;9.064;2024-01-30T12:07:01;7.57;;;6.40;;
73733;SDS011;62039;50.000;9.064;2024-01-30T12:09:30;8.23;;;6.30;;
73733;SDS011;62039;50.000;9.064;2024-01-30T12:11:56;7.40;;;6.50;;
73733;SDS011;62039;50.000;9.064;2024-01-30T12:14:23;10.60;;;6.73;;
73733;SDS011;62039;50.000;9.064;2024-01-30T12:16:51;7.33;;;6.17;;
73733;SDS011;62039;50.000;9.064;2024-01-30T12:19:21;7.50;;;6.40;;
73733;SDS011;62039;50.000;9.064;2024-01-30T12:21:55;8.97;;;6.90;;
73733;SDS011;62039;50.000;9.064;2024-01-30T12:24:23;8.83;;;6.30;;
73733;SDS011;62039;50.000;9.064;2024-01-30T12:26:50;9.47;;;7.57;;
73733;SDS011;62039;50.000;9.064;2024-01-30T12:29:19;8.87;;;7.27;;
73733;SDS011;62039;50.000;9.064;2024-01-30T12:31:46;10.93;;;8.90;;
73733;SDS011;62039;50.000;9.064;2024-01-30T12:34:13;9.47;;;7.43;;
73733;SDS011;62039;50.000;9.064;2024-01-30T12:36:41;10.53;;;7.40;;
73733;SDS011;62039;50.000;9.064;2024-01-30T12:39:13;9.63;;;7.50;;
73733;SDS011;62039;50.000;9.064;2024-01-30T12:41:41;8.70;;;7.57;;
73733;SDS011;62039;50.000;9.064;2024-01-30T12:44:08;9.57;;;6.93;;
73733;SDS011;62039;50.000;9.064;2024-01-30T12:46:35;7.93;;;6.77;;
73733;SDS011;62039;50.000;9.064;2024-01-30T12:49:02;7.60;;;6.60;;
73733;SDS011;62039;50.000;9.064;2024-01-30T12:51:29;8.03;;;6.60;;
73733;SDS011;62039;50.000;9.064;2024-01-30T12:53:56;9.37;;;6.70;;
73733;SDS011;62039;50.000;9.064;2024-01-30T12:56:25;7.70;;;6.60;;
73733;SDS011;62039;50.000;9.064;2024-01-30T12:58:52;10.00;;;6.60;;
73733;SDS011;62039;50.000;9.064;2024-01-30T13:01:21;7.43;;;6.40;;
73733;SDS011;62039;50.000;9.064;2024-01-30T13:03:48;8.20;;;6.07;;
73733;SDS011;62039;50.000;9.064;2024-01-30T13:06:15;8.40;;;6.63;;
73733;SDS011;62039;50.000;9.064;2024-01-30T13:08:42;7.67;;;6.27;;
73733;SDS011;62039;50.000;9.064;2024-01-30T13:11:09;7.47;;;6.67;;
73733;SDS011;62039;50.000;9.064;2024-01-30T13:13:49;7.53;;;6.13;;
73733;SDS011;62039;50.000;9.064;2024-01-30T13:16:16;8.53;;;6.20;;
73733;SDS011;62039;50.000;9.064;2024-01-30T13:18:43;7.13;;;6.27;;
73733;SDS011;62039;50.000;9.064;2024-01-30T13:21:10;8.57;;;5.93;;
73733;SDS011;62039;50.000;9.064;2024-01-30T13:23:37;8.40;;;6.27;;
73733;SDS011;62039;50.000;9.064;2024-01-30T13:26:04;9.57;;;6.67;;
73733;SDS011;62039;50.000;9.064;2024-01-30T13:28:31;8.43;;;6.40;;
73733;SDS011;62039;50.000;9.064;2024-01-30T13:31:01;8.70;;;6.30;;
73733;SDS011;62039;50.000;9.064;2024-01-30T13:33:28;7.83;;;5.47;;
73733;SDS011;62039;50.000;9.064;2024-01-30T13:35:55;8.97;;;6.07;;
73733;SDS011;62039;50.000;9.064;2024-01-30T13:38:22;11.47;;;5.97;;
73733;SDS011;62039;50.000;9.064;2024-01-30T13:40:49;11.97;;;5.87;;
73733;SDS011;62039;50.000;9.064;2024-01-30T13:43:16;7.97;;;5.83;;
73733;SDS011;62039;50.000;9.064;2024-01-30T13:45:43;7.73;;;5.90;;
73733;SDS011;62039;50.000;9.064;2024-01-30T13:48:12;9.37;;;6.20;;
73733;SDS011;62039;50.000;9.064;2024-01-30T13:50:39;8.47;;;5.43;;
73733;SDS011;62039;50.000;9.064;2024-01-30T13:53:07;6.53;;;5.50;;
73733;SDS011;62039;50.000;9.064;2024-01-30T13:55:34;7.70;;;5.97;;
73733;SDS011;62039;50.000;9.064;2024-01-30T13:58:01;6.73;;;5.77;;
73733;SDS011;62039;50.000;9.064;2024-01-30T14:00:28;5.80;;;5.20;;
73733;SDS011;62039;50.000;9.064;2024-01-30T14:02:55;5.73;;;5.03;;
73733;SDS011;62039;50.000;9.064;2024-01-30T14:05:25;5.67;;;5.10;;
73733;SDS011;62039;50.000;9.064;2024-01-30T14:07:53;11.77;;;6.93;;
73733;SDS011;62039;50.000;9.064;2024-01-30T14:10:20;10.13;;;6.67;;
73733;SDS011;62039;50.000;9.064;2024-01-30T14:12:47;9.53;;;6.63;;
73733;SDS011;62039;50.000;9.064;2024-01-30T14:15:14;9.83;;;6.70;;
73733;SDS011;62039;50.000;9.064;2024-01-30T14:17:53;13.77;;;6.77;;
73733;SDS011;62039;50.000;9.064;2024-01-30T14:20:21;8.27;;;5.60;;
73733;SDS011;62039;50.000;9.064;2024-01-30T14:22:50;10.50;;;5.60;;
73733;SDS011;62039;50.000;9.064;2024-01-30T14:25:18;7.07;;;5.20;;
73733;SDS011;62039;50.000;9.064;2024-01-30T14:27:44;8.17;;;5.10;;
73733;SDS011;62039;50.000;9.064;2024-01-30T14:30:12;5.43;;;4.73;;
73733;SDS011;62039;50.000;9.064;2024-01-30T14:32:39;5.80;;;4.43;;
73733;SDS011;62039;50.000;9.064;2024-01-30T14:35:06;9.13;;;7.17;;
73733;SDS011;62039;50.000;9.064;2024-01-30T14:37:33;8.50;;;5.90;;
73733;SDS011;62039;50.000;9.064;2024-01-30T14:40:02;7.87;;;6.60;;
73733;SDS011;62039;50.000;9.064;2024-01-30T14:42:30;8.23;;;6.80;;
73733;SDS011;62039;50.000;9.064;2024-01-30T14:44:57;9.30;;;6.13;;
73733;SDS011;62039;50.000;9.064;2024-01-30T14:47:24;7.60;;;5.20;;
73733;SDS011;62039;50.000;9.064;2024-01-30T14:49:51;5.87;;;4.63;;